createdAt,value
2023-05-22T00:03:31.418Z,98233.44
2023-05-22T00:08:58.365Z,98224.47
2023-05-22T00:14:23.358Z,98216.50
2023-05-22T00:19:41.353Z,98218.38
2023-05-22T00:25:15.339Z,98208.75
2023-05-22T00:30:40.633Z,98205.63
2023-05-22T00:36:04.346Z,98207.06
2023-05-22T00:41:32.400Z,98202.88
2023-05-22T00:46:56.431Z,98202.47
2023-05-22T00:52:24.383Z,98203.50
2023-05-22T00:57:53.397Z,98198.44
2023-05-22T01:03:19.408Z,98189.66
2023-05-22T01:08:43.378Z,98200.75
2023-05-22T01:14:17.402Z,98193.63
2023-05-22T01:20:14.520Z,98204.75
2023-05-22T01:26:10.392Z,98195.31
2023-05-22T01:31:41.419Z,98191.94
2023-05-22T01:37:07.431Z,98197.78
2023-05-22T01:42:33.417Z,98204.31
2023-05-22T01:48:00.489Z,98198.88
2023-05-22T01:53:32.434Z,98211.41
2023-05-22T01:59:03.423Z,98213.94
2023-05-22T02:04:32.446Z,98214.34
2023-05-22T02:10:01.403Z,98217.06
2023-05-22T02:15:29.447Z,98210.56
2023-05-22T02:20:57.439Z,98206.16
2023-05-22T02:26:29.440Z,98211.19
2023-05-22T02:31:54.464Z,98204.69
2023-05-22T02:37:22.450Z,98211.78
2023-05-22T02:42:47.451Z,98208.66
2023-05-22T02:48:11.481Z,98204.88
2023-05-22T02:53:40.519Z,98201.28
2023-05-22T02:59:04.484Z,98200.03
2023-05-22T03:04:29.481Z,98192.91
2023-05-22T03:09:58.455Z,98188.06
2023-05-22T03:15:23.452Z,98189.50
2023-05-22T03:20:53.449Z,98194.53
2023-05-22T03:26:28.500Z,98184.91
2023-05-22T03:31:55.459Z,98183.63
2023-05-22T03:37:20.530Z,98187.38
2023-05-22T03:42:48.471Z,98179.22
2023-05-22T03:48:25.520Z,98178.41
2023-05-22T03:53:50.478Z,98184.03
2023-05-22T03:59:19.539Z,98186.56
2023-05-22T04:04:45.532Z,98184.66
2023-05-22T04:10:09.511Z,98186.97
2023-05-22T04:15:40.546Z,98181.75
2023-05-22T04:21:04.528Z,98179.50
2023-05-22T04:26:36.509Z,98178.63
2023-05-22T04:32:06.514Z,98180.72
2023-05-22T04:37:31.527Z,98187.63
2023-05-22T04:42:56.501Z,98185.94
2023-05-22T04:48:26.552Z,98183.00
2023-05-22T04:53:52.563Z,98181.34
2023-05-22T04:59:22.551Z,98188.72
2023-05-22T05:04:50.502Z,98183.72
2023-05-22T05:10:15.552Z,98198.78
2023-05-22T05:15:40.541Z,98193.41
2023-05-22T05:21:07.561Z,98184.63
2023-05-22T05:26:33.574Z,98184.66
2023-05-22T05:31:58.578Z,98185.09
2023-05-22T05:37:46.547Z,98178.59
2023-05-22T05:43:11.551Z,98184.25
2023-05-22T05:48:36.575Z,98194.28
2023-05-22T05:54:03.574Z,98195.31
2023-05-22T05:59:29.569Z,98190.91
2023-05-22T06:05:12.602Z,98187.53
2023-05-22T06:10:42.645Z,98189.59
2023-05-22T06:16:22.713Z,98196.28
2023-05-22T06:21:47.994Z,98186.59
2023-05-22T06:27:23.618Z,98178.59
2023-05-22T06:32:48.758Z,98171.41
2023-05-22T06:38:13.637Z,98175.78
2023-05-22T06:43:41.555Z,98180.56
2023-05-22T06:49:06.599Z,98178.41
2023-05-22T06:54:36.585Z,98181.69
2023-05-22T07:00:07.602Z,98184.19
2023-05-22T07:05:50.712Z,98182.63
2023-05-22T07:11:15.640Z,98178.16
2023-05-22T07:16:43.698Z,98175.69
2023-05-22T07:22:13.600Z,98172.81
2023-05-22T07:27:45.640Z,98182.47
2023-05-22T07:33:15.695Z,98175.03
2023-05-22T07:38:39.642Z,98166.63
2023-05-22T07:44:06.653Z,98175.22
2023-05-22T07:49:34.652Z,98172.13
2023-05-22T07:55:05.623Z,98169.50
2023-05-22T08:00:32.684Z,98162.88
2023-05-22T08:05:59.698Z,98161.69
2023-05-22T08:11:24.670Z,98165.16
2023-05-22T08:16:48.732Z,98173.41
2023-05-22T08:22:16.700Z,98163.88
2023-05-22T08:27:40.639Z,98166.50
2023-05-22T08:33:05.746Z,98156.44
2023-05-22T08:38:33.679Z,98150.44
2023-05-22T08:43:58.672Z,98150.41
2023-05-22T08:49:24.702Z,98145.44
2023-05-22T08:54:58.683Z,98143.44
2023-05-22T09:00:24.716Z,98137.53
2023-05-22T09:05:49.673Z,98138.56
2023-05-22T09:11:17.717Z,98133.00
2023-05-22T09:16:42.733Z,98131.94
2023-05-22T09:22:07.744Z,98130.59
2023-05-22T09:27:43.708Z,98122.94
2023-05-22T09:33:08.910Z,98120.75
2023-05-22T09:38:32.800Z,98118.53
2023-05-22T09:44:02.298Z,98121.97
2023-05-22T09:49:27.739Z,98120.66
2023-05-22T09:55:01.751Z,98122.59
2023-05-22T10:00:31.753Z,98117.34
2023-05-22T10:05:59.744Z,98105.38
2023-05-22T10:11:25.762Z,98109.94
2023-05-22T10:16:53.751Z,98097.13
2023-05-22T10:22:21.724Z,98088.38
2023-05-22T10:27:53.761Z,98078.53
2023-05-22T10:33:26.821Z,98081.63
2023-05-22T10:39:08.770Z,98074.50
2023-05-22T10:44:33.743Z,98073.75
2023-05-22T10:50:01.778Z,98069.66
2023-05-22T10:55:32.749Z,98058.06
2023-05-22T11:00:57.811Z,98050.63
2023-05-22T11:06:42.951Z,98047.06
2023-05-22T11:12:37.824Z,98048.13
2023-05-22T11:18:11.927Z,98033.50
2023-05-22T11:23:40.771Z,98046.22
2023-05-22T11:29:05.814Z,98045.34
2023-05-22T11:34:30.822Z,98033.75
2023-05-22T11:40:05.873Z,98031.00
2023-05-22T11:45:30.852Z,98024.09
2023-05-22T11:50:56.826Z,98020.25
2023-05-22T11:56:23.869Z,98020.50
2023-05-22T12:01:48.830Z,98018.25
2023-05-22T12:07:34.818Z,98012.66
2023-05-22T12:13:03.842Z,98004.28
2023-05-22T12:18:29.842Z,98005.41
2023-05-22T12:23:59.853Z,98009.28
2023-05-22T12:29:26.871Z,98004.31
2023-05-22T12:34:58.078Z,97999.97
2023-05-22T12:40:25.851Z,97999.06
2023-05-22T12:46:03.626Z,98005.72
2023-05-22T12:51:27.857Z,97990.56
2023-05-22T12:56:52.885Z,97993.13
2023-05-22T13:02:19.926Z,97984.59
2023-05-22T13:07:45.704Z,97978.50
2023-05-22T13:13:09.898Z,97980.19
2023-05-22T13:18:48.161Z,97972.97
2023-05-22T13:24:20.887Z,97968.53
2023-05-22T13:29:55.782Z,97975.63
2023-05-22T13:35:23.930Z,97973.84
2023-05-22T13:40:49.024Z,97969.78
2023-05-22T13:46:13.954Z,97970.81
2023-05-22T13:51:41.886Z,97957.31
2023-05-22T13:57:08.909Z,97963.13
2023-05-22T14:02:34.019Z,97947.47
2023-05-22T14:08:03.174Z,97940.47
2023-05-22T14:13:27.960Z,97922.13
2023-05-22T14:18:52.004Z,97920.53
2023-05-22T14:24:19.965Z,97930.09
2023-05-22T14:29:43.950Z,97927.91
2023-05-22T14:35:08.972Z,97941.50
2023-05-22T14:40:36.009Z,97945.19
2023-05-22T14:46:01.009Z,97940.88
2023-05-22T14:51:25.004Z,97934.47
2023-05-22T14:56:53.188Z,97927.56
2023-05-22T15:02:17.266Z,97920.88
2023-05-22T15:07:44.508Z,97911.41
2023-05-22T15:13:13.974Z,97910.38
2023-05-22T15:18:38.993Z,97918.72
2023-05-22T15:24:03.987Z,97918.81
2023-05-22T15:29:31.990Z,97928.22
2023-05-22T15:34:55.997Z,97916.09
2023-05-22T15:40:25.004Z,97907.00
2023-05-22T15:45:53.055Z,97917.22
2023-05-22T15:51:17.999Z,97911.44
2023-05-22T15:56:42.028Z,97892.34
2023-05-22T16:02:10.012Z,97889.84
2023-05-22T16:07:35.060Z,97892.56
2023-05-22T16:13:00.069Z,97876.28
2023-05-22T16:18:28.011Z,97887.22
2023-05-22T16:23:53.069Z,97903.44
2023-05-22T16:29:27.015Z,97901.50
2023-05-22T16:34:57.005Z,97899.50
2023-05-22T16:40:24.073Z,97894.75
2023-05-22T16:45:54.038Z,97881.63
2023-05-22T16:51:21.075Z,97866.22
2023-05-22T16:56:46.083Z,97886.66
2023-05-22T17:02:10.111Z,97903.25
2023-05-22T17:07:38.053Z,97901.78
2023-05-22T17:13:03.160Z,97898.03
2023-05-22T17:18:29.095Z,97908.28
2023-05-22T17:23:56.089Z,97901.13
2023-05-22T17:29:21.073Z,97894.72
2023-05-22T17:34:46.090Z,97898.88
2023-05-22T17:40:15.096Z,97893.41
2023-05-22T17:45:39.171Z,97896.47
2023-05-22T17:51:04.114Z,97895.38
2023-05-22T17:56:32.113Z,97898.63
2023-05-22T18:01:59.199Z,97909.03
2023-05-22T18:07:24.069Z,97910.78
2023-05-22T18:12:52.113Z,97930.69
2023-05-22T18:18:16.108Z,97946.25
2023-05-22T18:23:41.176Z,97959.13
2023-05-22T18:29:09.140Z,97969.75
2023-05-22T18:34:36.573Z,97970.88
2023-05-22T18:40:02.164Z,97981.88
2023-05-22T18:45:30.120Z,97977.97
2023-05-22T18:50:54.147Z,97981.66
2023-05-22T18:56:20.185Z,98001.84
2023-05-22T19:01:48.181Z,98015.63
2023-05-22T19:07:15.225Z,98011.25
2023-05-22T19:12:41.131Z,97998.00
2023-05-22T19:18:11.224Z,97962.28
2023-05-22T19:23:39.214Z,97928.25
2023-05-22T19:29:10.139Z,97956.28
2023-05-22T19:34:38.143Z,97943.84
2023-05-22T19:40:03.203Z,97935.56
2023-05-22T19:45:28.201Z,97931.69
2023-05-22T19:50:55.178Z,97938.19
2023-05-22T19:56:20.206Z,97957.50
2023-05-22T20:01:44.241Z,97958.41
2023-05-22T20:07:14.179Z,97976.28
2023-05-22T20:12:38.212Z,97978.19
2023-05-22T20:18:04.267Z,97980.28
2023-05-22T20:23:34.169Z,97974.00
2023-05-22T20:29:06.180Z,97982.16
2023-05-22T20:34:35.181Z,97977.84
2023-05-22T20:40:02.195Z,97969.06
2023-05-22T20:45:27.231Z,97973.28
2023-05-22T20:50:54.260Z,97981.25
2023-05-22T20:56:22.192Z,97985.22
2023-05-22T21:01:46.256Z,98046.47
2023-05-22T21:07:11.201Z,98086.25
2023-05-22T21:12:38.227Z,98096.09
2023-05-22T21:18:03.277Z,98110.75
2023-05-22T21:23:27.250Z,98096.53
2023-05-22T21:29:01.228Z,98095.09
2023-05-22T21:34:26.230Z,98103.47
2023-05-22T21:39:50.277Z,98101.97
2023-05-22T21:45:19.230Z,98091.94
2023-05-22T21:50:43.251Z,98102.59
2023-05-22T21:56:08.250Z,98110.53
2023-05-22T22:01:35.304Z,98128.13
2023-05-22T22:07:00.265Z,98134.84
2023-05-22T22:12:24.302Z,98130.88
2023-05-22T22:17:52.306Z,98128.13
2023-05-22T22:23:17.258Z,98125.81
2023-05-22T22:28:49.296Z,98101.97
2023-05-22T22:34:17.267Z,98100.69
2023-05-22T22:39:41.293Z,98080.00
2023-05-22T22:45:06.275Z,98067.84
2023-05-22T22:50:33.272Z,98046.03
2023-05-22T22:56:03.324Z,98063.19
2023-05-22T23:01:27.389Z,98053.16
2023-05-22T23:06:55.301Z,98088.38
2023-05-22T23:12:20.274Z,98112.22
2023-05-22T23:17:45.314Z,98126.03
2023-05-22T23:23:12.316Z,98124.38
2023-05-22T23:28:37.364Z,98132.69
2023-05-22T23:34:02.370Z,98138.97
2023-05-22T23:39:30.330Z,98158.63
2023-05-22T23:44:54.314Z,98152.13
2023-05-22T23:50:20.300Z,98145.66
2023-05-22T23:55:47.339Z,98147.34
